sensor_id;sensor_type;location;lat;lon;timestamp;temperature;humidity
34955;DHT22;21639;51.460;-2.536;2022-07-19T00:01:26;25.10;99.90
34955;DHT22;21639;51.460;-2.536;2022-07-19T00:03:52;25.00;99.90
34955;DHT22;21639;51.460;-2.536;2022-07-19T00:06:18;25.00;99.90
34955;DHT22;21639;51.460;-2.536;2022-07-19T00:08:43;25.00;99.90
34955;DHT22;21639;51.460;-2.536;2022-07-19T00:11:09;25.10;99.90
34955;DHT22;21639;51.460;-2.536;2022-07-19T00:13:35;25.20;99.90
34955;DHT22;21639;51.460;-2.536;2022-07-19T00:16:00;25.30;99.90
34955;DHT22;21639;51.460;-2.536;2022-07-19T00:18:26;25.10;99.90
34955;DHT22;21639;51.460;-2.536;2022-07-19T00:20:52;24.90;99.90
34955;DHT22;21639;51.460;-2.536;2022-07-19T00:23:17;24.90;99.90
34955;DHT22;21639;51.460;-2.536;2022-07-19T00:25:43;24.80;99.90
34955;DHT22;21639;51.460;-2.536;2022-07-19T00:28:09;24.80;99.90
34955;DHT22;21639;51.460;-2.536;2022-07-19T00:30:34;24.80;99.90
34955;DHT22;21639;51.460;-2.536;2022-07-19T00:33:00;24.80;99.90
34955;DHT22;21639;51.460;-2.536;2022-07-19T00:35:27;24.80;99.90
34955;DHT22;21639;51.460;-2.536;2022-07-19T00:37:52;24.80;99.90
34955;DHT22;21639;51.460;-2.536;2022-07-19T00:40:22;24.90;99.90
34955;DHT22;21639;51.460;-2.536;2022-07-19T00:42:49;25.10;99.90
34955;DHT22;21639;51.460;-2.536;2022-07-19T00:45:14;25.30;99.90
34955;DHT22;21639;51.460;-2.536;2022-07-19T00:47:40;25.30;99.90
34955;DHT22;21639;51.460;-2.536;2022-07-19T00:50:06;25.40;99.90
34955;DHT22;21639;51.460;-2.536;2022-07-19T00:52:33;25.50;99.90
34955;DHT22;21639;51.460;-2.536;2022-07-19T00:54:59;25.60;99.90
34955;DHT22;21639;51.460;-2.536;2022-07-19T00:57:25;25.70;99.90
34955;DHT22;21639;51.460;-2.536;2022-07-19T00:59:54;25.70;99.90
34955;DHT22;21639;51.460;-2.536;2022-07-19T01:02:20;25.70;99.90
34955;DHT22;21639;51.460;-2.536;2022-07-19T01:04:45;25.70;99.90
34955;DHT22;21639;51.460;-2.536;2022-07-19T01:07:12;25.60;99.90
34955;DHT22;21639;51.460;-2.536;2022-07-19T01:09:38;25.60;99.90
34955;DHT22;21639;51.460;-2.536;2022-07-19T01:12:04;25.60;99.90
34955;DHT22;21639;51.460;-2.536;2022-07-19T01:14:31;25.50;99.90
34955;DHT22;21639;51.460;-2.536;2022-07-19T01:16:58;25.60;99.90
34955;DHT22;21639;51.460;-2.536;2022-07-19T01:19:24;25.50;99.90
34955;DHT22;21639;51.460;-2.536;2022-07-19T01:21:49;25.50;99.90
34955;DHT22;21639;51.460;-2.536;2022-07-19T01:24:15;25.40;99.90
34955;DHT22;21639;51.460;-2.536;2022-07-19T01:26:41;25.30;99.90
34955;DHT22;21639;51.460;-2.536;2022-07-19T01:29:06;25.20;99.90
34955;DHT22;21639;51.460;-2.536;2022-07-19T01:31:32;25.20;99.90
34955;DHT22;21639;51.460;-2.536;2022-07-19T01:33:58;25.10;99.90
34955;DHT22;21639;51.460;-2.536;2022-07-19T01:36:23;25.10;99.90
34955;DHT22;21639;51.460;-2.536;2022-07-19T01:38:49;25.10;99.90
34955;DHT22;21639;51.460;-2.536;2022-07-19T01:41:15;25.10;99.90
34955;DHT22;21639;51.460;-2.536;2022-07-19T01:43:40;25.10;99.90
34955;DHT22;21639;51.460;-2.536;2022-07-19T01:46:06;25.00;99.90
34955;DHT22;21639;51.460;-2.536;2022-07-19T01:48:32;25.00;99.90
34955;DHT22;21639;51.460;-2.536;2022-07-19T01:50:57;25.00;99.90
34955;DHT22;21639;51.460;-2.536;2022-07-19T01:53:23;24.90;99.90
34955;DHT22;21639;51.460;-2.536;2022-07-19T01:55:49;24.90;99.90
34955;DHT22;21639;51.460;-2.536;2022-07-19T01:58:15;24.80;99.90
34955;DHT22;21639;51.460;-2.536;2022-07-19T02:00:41;24.60;99.90
34955;DHT22;21639;51.460;-2.536;2022-07-19T02:03:06;24.40;99.90
34955;DHT22;21639;51.460;-2.536;2022-07-19T02:05:32;24.30;99.90
34955;DHT22;21639;51.460;-2.536;2022-07-19T02:07:59;24.20;99.90
34955;DHT22;21639;51.460;-2.536;2022-07-19T02:10:25;24.10;99.90
34955;DHT22;21639;51.460;-2.536;2022-07-19T02:12:50;24.10;99.90
34955;DHT22;21639;51.460;-2.536;2022-07-19T02:15:16;24.00;99.90
34955;DHT22;21639;51.460;-2.536;2022-07-19T02:17:42;24.10;99.90
34955;DHT22;21639;51.460;-2.536;2022-07-19T02:20:08;24.10;99.90
34955;DHT22;21639;51.460;-2.536;2022-07-19T02:22:34;24.10;99.90
34955;DHT22;21639;51.460;-2.536;2022-07-19T02:24:59;24.10;99.90
34955;DHT22;21639;51.460;-2.536;2022-07-19T02:27:25;24.10;99.90
34955;DHT22;21639;51.460;-2.536;2022-07-19T02:29:51;24.10;99.90
34955;DHT22;21639;51.460;-2.536;2022-07-19T02:32:17;24.10;99.90
34955;DHT22;21639;51.460;-2.536;2022-07-19T02:34:43;24.00;99.90
34955;DHT22;21639;51.460;-2.536;2022-07-19T02:37:09;23.90;99.90
34955;DHT22;21639;51.460;-2.536;2022-07-19T02:39:34;23.80;99.90
34955;DHT22;21639;51.460;-2.536;2022-07-19T02:42:00;23.80;99.90
34955;DHT22;21639;51.460;-2.536;2022-07-19T02:44:26;23.90;99.90
34955;DHT22;21639;51.460;-2.536;2022-07-19T02:46:51;23.80;99.90
34955;DHT22;21639;51.460;-2.536;2022-07-19T02:49:17;23.70;99.90
34955;DHT22;21639;51.460;-2.536;2022-07-19T02:51:43;23.80;99.90
34955;DHT22;21639;51.460;-2.536;2022-07-19T02:54:08;23.70;99.90
34955;DHT22;21639;51.460;-2.536;2022-07-19T02:56:34;23.70;99.90
34955;DHT22;21639;51.460;-2.536;2022-07-19T02:59:03;23.70;99.90
34955;DHT22;21639;51.460;-2.536;2022-07-19T03:01:29;23.80;99.90
34955;DHT22;21639;51.460;-2.536;2022-07-19T03:03:55;23.80;99.90
34955;DHT22;21639;51.460;-2.536;2022-07-19T03:06:21;23.80;99.90
34955;DHT22;21639;51.460;-2.536;2022-07-19T03:08:47;23.80;99.90
34955;DHT22;21639;51.460;-2.536;2022-07-19T03:11:13;23.90;99.90
34955;DHT22;21639;51.460;-2.536;2022-07-19T03:13:38;24.00;99.90
34955;DHT22;21639;51.460;-2.536;2022-07-19T03:16:05;24.10;99.90
34955;DHT22;21639;51.460;-2.536;2022-07-19T03:18:31;24.20;99.90
34955;DHT22;21639;51.460;-2.536;2022-07-19T03:20:56;24.30;99.90
34955;DHT22;21639;51.460;-2.536;2022-07-19T03:23:30;24.50;99.90
34955;DHT22;21639;51.460;-2.536;2022-07-19T03:25:56;24.70;99.90
34955;DHT22;21639;51.460;-2.536;2022-07-19T03:28:21;24.70;99.90
34955;DHT22;21639;51.460;-2.536;2022-07-19T03:30:47;24.70;99.90
34955;DHT22;21639;51.460;-2.536;2022-07-19T03:33:13;24.70;99.90
34955;DHT22;21639;51.460;-2.536;2022-07-19T03:35:42;24.70;99.90
34955;DHT22;21639;51.460;-2.536;2022-07-19T03:38:09;24.70;99.90
34955;DHT22;21639;51.460;-2.536;2022-07-19T03:40:35;24.70;99.90
34955;DHT22;21639;51.460;-2.536;2022-07-19T03:43:01;24.70;99.90
34955;DHT22;21639;51.460;-2.536;2022-07-19T03:45:27;24.70;99.90
34955;DHT22;21639;51.460;-2.536;2022-07-19T03:47:52;24.70;99.90
34955;DHT22;21639;51.460;-2.536;2022-07-19T03:50:18;24.70;99.90
34955;DHT22;21639;51.460;-2.536;2022-07-19T03:52:44;24.60;99.90
34955;DHT22;21639;51.460;-2.536;2022-07-19T03:55:09;24.50;99.90
34955;DHT22;21639;51.460;-2.536;2022-07-19T03:57:35;24.50;99.90
34955;DHT22;21639;51.460;-2.536;2022-07-19T04:00:01;24.40;99.90
34955;DHT22;21639;51.460;-2.536;2022-07-19T04:02:27;24.40;99.90
34955;DHT22;21639;51.460;-2.536;2022-07-19T04:04:52;24.30;99.90
34955;DHT22;21639;51.460;-2.536;2022-07-19T04:07:18;24.30;99.90
34955;DHT22;21639;51.460;-2.536;2022-07-19T04:09:44;24.10;99.90
34955;DHT22;21639;51.460;-2.536;2022-07-19T04:12:09;24.00;99.90
34955;DHT22;21639;51.460;-2.536;2022-07-19T04:14:35;24.00;99.90
34955;DHT22;21639;51.460;-2.536;2022-07-19T04:17:00;23.90;99.90
34955;DHT22;21639;51.460;-2.536;2022-07-19T04:19:30;23.90;99.90
34955;DHT22;21639;51.460;-2.536;2022-07-19T04:21:55;23.90;99.90
34955;DHT22;21639;51.460;-2.536;2022-07-19T04:24:21;23.90;99.90
34955;DHT22;21639;51.460;-2.536;2022-07-19T04:26:46;23.90;99.90
34955;DHT22;21639;51.460;-2.536;2022-07-19T04:29:12;23.90;99.90
34955;DHT22;21639;51.460;-2.536;2022-07-19T04:31:38;23.80;99.90
34955;DHT22;21639;51.460;-2.536;2022-07-19T04:34:03;23.80;99.90
34955;DHT22;21639;51.460;-2.536;2022-07-19T04:36:29;23.80;99.90
34955;DHT22;21639;51.460;-2.536;2022-07-19T04:38:55;23.70;99.90
34955;DHT22;21639;51.460;-2.536;2022-07-19T04:41:20;23.70;99.90
34955;DHT22;21639;51.460;-2.536;2022-07-19T04:43:46;23.60;99.90
34955;DHT22;21639;51.460;-2.536;2022-07-19T04:46:11;23.60;99.90
34955;DHT22;21639;51.460;-2.536;2022-07-19T04:48:37;23.60;99.90
34955;DHT22;21639;51.460;-2.536;2022-07-19T04:51:03;23.60;99.90
34955;DHT22;21639;51.460;-2.536;2022-07-19T04:53:28;23.70;99.90
34955;DHT22;21639;51.460;-2.536;2022-07-19T04:55:55;23.80;99.90
34955;DHT22;21639;51.460;-2.536;2022-07-19T04:58:21;23.90;99.90
34955;DHT22;21639;51.460;-2.536;2022-07-19T05:00:47;23.90;99.90
34955;DHT22;21639;51.460;-2.536;2022-07-19T05:03:13;24.10;99.90
34955;DHT22;21639;51.460;-2.536;2022-07-19T05:05:38;24.20;99.90
34955;DHT22;21639;51.460;-2.536;2022-07-19T05:08:04;24.30;99.90
34955;DHT22;21639;51.460;-2.536;2022-07-19T05:10:30;24.40;99.90
34955;DHT22;21639;51.460;-2.536;2022-07-19T05:12:56;24.60;99.90
34955;DHT22;21639;51.460;-2.536;2022-07-19T05:15:22;24.70;99.90
34955;DHT22;21639;51.460;-2.536;2022-07-19T05:17:48;24.80;99.90
34955;DHT22;21639;51.460;-2.536;2022-07-19T05:20:14;24.90;99.90
34955;DHT22;21639;51.460;-2.536;2022-07-19T05:22:41;25.00;99.90
34955;DHT22;21639;51.460;-2.536;2022-07-19T05:25:07;25.00;99.90
34955;DHT22;21639;51.460;-2.536;2022-07-19T05:27:35;25.10;99.90
34955;DHT22;21639;51.460;-2.536;2022-07-19T05:30:01;25.10;99.90
34955;DHT22;21639;51.460;-2.536;2022-07-19T05:32:27;25.10;99.90
34955;DHT22;21639;51.460;-2.536;2022-07-19T05:34:52;25.20;99.90
34955;DHT22;21639;51.460;-2.536;2022-07-19T05:37:18;25.20;99.90
34955;DHT22;21639;51.460;-2.536;2022-07-19T05:39:44;25.30;99.90
34955;DHT22;21639;51.460;-2.536;2022-07-19T05:42:09;25.30;99.90
34955;DHT22;21639;51.460;-2.536;2022-07-19T05:44:35;25.30;99.90
34955;DHT22;21639;51.460;-2.536;2022-07-19T05:47:00;25.20;99.90
34955;DHT22;21639;51.460;-2.536;2022-07-19T05:49:26;25.20;99.90
34955;DHT22;21639;51.460;-2.536;2022-07-19T05:51:52;25.30;99.90
34955;DHT22;21639;51.460;-2.536;2022-07-19T05:54:17;25.20;99.90
34955;DHT22;21639;51.460;-2.536;2022-07-19T05:56:44;25.30;99.90
34955;DHT22;21639;51.460;-2.536;2022-07-19T05:59:09;25.30;99.90
34955;DHT22;21639;51.460;-2.536;2022-07-19T06:01:35;25.30;99.90
34955;DHT22;21639;51.460;-2.536;2022-07-19T06:04:01;25.30;99.90
34955;DHT22;21639;51.460;-2.536;2022-07-19T06:06:29;25.40;99.90
34955;DHT22;21639;51.460;-2.536;2022-07-19T06:08:56;25.40;99.90
34955;DHT22;21639;51.460;-2.536;2022-07-19T06:11:22;25.40;99.90
34955;DHT22;21639;51.460;-2.536;2022-07-19T06:13:48;25.40;99.90
34955;DHT22;21639;51.460;-2.536;2022-07-19T06:16:14;25.40;99.90
34955;DHT22;21639;51.460;-2.536;2022-07-19T06:18:40;25.40;99.90
34955;DHT22;21639;51.460;-2.536;2022-07-19T06:21:10;25.50;99.90
34955;DHT22;21639;51.460;-2.536;2022-07-19T06:23:38;25.50;99.90
34955;DHT22;21639;51.460;-2.536;2022-07-19T06:26:05;25.50;99.90
34955;DHT22;21639;51.460;-2.536;2022-07-19T06:28:31;25.60;99.90
34955;DHT22;21639;51.460;-2.536;2022-07-19T06:30:57;25.60;99.90
34955;DHT22;21639;51.460;-2.536;2022-07-19T06:33:23;25.60;99.90
34955;DHT22;21639;51.460;-2.536;2022-07-19T06:35:48;25.70;99.90
34955;DHT22;21639;51.460;-2.536;2022-07-19T06:38:14;25.80;99.90
34955;DHT22;21639;51.460;-2.536;2022-07-19T06:40:40;25.90;99.90
34955;DHT22;21639;51.460;-2.536;2022-07-19T06:43:06;25.90;99.90
34955;DHT22;21639;51.460;-2.536;2022-07-19T06:45:32;26.00;99.90
34955;DHT22;21639;51.460;-2.536;2022-07-19T06:47:57;26.00;99.90
34955;DHT22;21639;51.460;-2.536;2022-07-19T06:50:23;26.10;99.90
34955;DHT22;21639;51.460;-2.536;2022-07-19T06:52:49;26.20;99.90
34955;DHT22;21639;51.460;-2.536;2022-07-19T06:55:15;26.40;99.90
34955;DHT22;21639;51.460;-2.536;2022-07-19T06:57:40;26.50;99.90
34955;DHT22;21639;51.460;-2.536;2022-07-19T07:00:07;26.60;99.90
34955;DHT22;21639;51.460;-2.536;2022-07-19T07:02:36;26.60;99.90
34955;DHT22;21639;51.460;-2.536;2022-07-19T07:05:02;26.60;99.90
34955;DHT22;21639;51.460;-2.536;2022-07-19T07:07:28;26.60;99.90
34955;DHT22;21639;51.460;-2.536;2022-07-19T07:09:53;26.70;99.90
34955;DHT22;21639;51.460;-2.536;2022-07-19T07:12:19;26.70;99.90
34955;DHT22;21639;51.460;-2.536;2022-07-19T07:14:44;26.80;99.90
34955;DHT22;21639;51.460;-2.536;2022-07-19T07:17:10;26.90;99.90
34955;DHT22;21639;51.460;-2.536;2022-07-19T07:19:36;26.90;99.90
34955;DHT22;21639;51.460;-2.536;2022-07-19T07:22:02;27.00;99.90
34955;DHT22;21639;51.460;-2.536;2022-07-19T07:24:28;27.00;99.90
34955;DHT22;21639;51.460;-2.536;2022-07-19T07:26:54;27.00;99.90
34955;DHT22;21639;51.460;-2.536;2022-07-19T07:29:20;27.10;99.90
34955;DHT22;21639;51.460;-2.536;2022-07-19T07:31:46;27.20;99.90
34955;DHT22;21639;51.460;-2.536;2022-07-19T07:34:11;27.30;99.90
34955;DHT22;21639;51.460;-2.536;2022-07-19T07:36:37;27.40;99.90
34955;DHT22;21639;51.460;-2.536;2022-07-19T07:39:03;27.40;99.90
34955;DHT22;21639;51.460;-2.536;2022-07-19T07:41:29;27.40;99.90
34955;DHT22;21639;51.460;-2.536;2022-07-19T07:43:55;27.50;99.90
34955;DHT22;21639;51.460;-2.536;2022-07-19T07:46:20;27.60;99.90
34955;DHT22;21639;51.460;-2.536;2022-07-19T07:48:46;27.60;99.90
34955;DHT22;21639;51.460;-2.536;2022-07-19T07:51:12;27.70;99.90
34955;DHT22;21639;51.460;-2.536;2022-07-19T07:53:38;27.80;99.90
34955;DHT22;21639;51.460;-2.536;2022-07-19T07:56:04;27.90;99.90
34955;DHT22;21639;51.460;-2.536;2022-07-19T07:58:30;27.90;99.90
34955;DHT22;21639;51.460;-2.536;2022-07-19T08:00:55;27.90;99.90
34955;DHT22;21639;51.460;-2.536;2022-07-19T08:03:21;28.10;99.90
34955;DHT22;21639;51.460;-2.536;2022-07-19T08:05:47;28.20;99.90
34955;DHT22;21639;51.460;-2.536;2022-07-19T08:08:17;28.30;99.90
34955;DHT22;21639;51.460;-2.536;2022-07-19T08:10:43;28.30;99.90
34955;DHT22;21639;51.460;-2.536;2022-07-19T08:13:09;28.30;99.90
34955;DHT22;21639;51.460;-2.536;2022-07-19T08:15:36;28.40;99.90
34955;DHT22;21639;51.460;-2.536;2022-07-19T08:18:03;28.40;99.90
34955;DHT22;21639;51.460;-2.536;2022-07-19T08:20:29;28.50;99.90
34955;DHT22;21639;51.460;-2.536;2022-07-19T08:22:54;28.50;99.90
34955;DHT22;21639;51.460;-2.536;2022-07-19T08:25:20;28.60;99.90
34955;DHT22;21639;51.460;-2.536;2022-07-19T08:27:46;28.70;99.90
34955;DHT22;21639;51.460;-2.536;2022-07-19T08:30:12;28.70;99.90
34955;DHT22;21639;51.460;-2.536;2022-07-19T08:32:39;28.90;99.90
34955;DHT22;21639;51.460;-2.536;2022-07-19T08:35:06;29.00;99.90
34955;DHT22;21639;51.460;-2.536;2022-07-19T08:37:32;29.10;99.90
34955;DHT22;21639;51.460;-2.536;2022-07-19T08:39:58;29.20;99.90
34955;DHT22;21639;51.460;-2.536;2022-07-19T08:42:24;29.30;99.90
34955;DHT22;21639;51.460;-2.536;2022-07-19T08:44:53;29.40;99.90
34955;DHT22;21639;51.460;-2.536;2022-07-19T08:47:20;29.50;99.90
34955;DHT22;21639;51.460;-2.536;2022-07-19T08:49:47;29.60;99.90
34955;DHT22;21639;51.460;-2.536;2022-07-19T08:52:13;29.60;99.90
34955;DHT22;21639;51.460;-2.536;2022-07-19T08:54:39;29.70;99.90
34955;DHT22;21639;51.460;-2.536;2022-07-19T08:57:06;29.90;99.90
34955;DHT22;21639;51.460;-2.536;2022-07-19T08:59:50;30.00;99.90
34955;DHT22;21639;51.460;-2.536;2022-07-19T09:02:18;30.10;99.90
34955;DHT22;21639;51.460;-2.536;2022-07-19T09:05:02;30.20;99.90
34955;DHT22;21639;51.460;-2.536;2022-07-19T09:07:31;30.30;99.90
34955;DHT22;21639;51.460;-2.536;2022-07-19T09:15:55;30.70;99.90
34955;DHT22;21639;51.460;-2.536;2022-07-19T09:18:39;30.80;99.90
34955;DHT22;21639;51.460;-2.536;2022-07-19T09:21:06;31.00;99.90
34955;DHT22;21639;51.460;-2.536;2022-07-19T09:23:33;31.00;99.90
34955;DHT22;21639;51.460;-2.536;2022-07-19T09:26:01;31.20;99.90
34955;DHT22;21639;51.460;-2.536;2022-07-19T09:28:29;31.50;99.90
34955;DHT22;21639;51.460;-2.536;2022-07-19T09:30:57;31.60;99.90
34955;DHT22;21639;51.460;-2.536;2022-07-19T09:33:29;31.70;99.90
34955;DHT22;21639;51.460;-2.536;2022-07-19T09:36:03;31.70;99.90
34955;DHT22;21639;51.460;-2.536;2022-07-19T09:38:36;31.60;99.90
34955;DHT22;21639;51.460;-2.536;2022-07-19T09:41:18;31.50;99.90
34955;DHT22;21639;51.460;-2.536;2022-07-19T09:43:58;31.60;99.90
34955;DHT22;21639;51.460;-2.536;2022-07-19T09:46:33;31.70;99.90
34955;DHT22;21639;51.460;-2.536;2022-07-19T09:49:11;31.70;99.90
34955;DHT22;21639;51.460;-2.536;2022-07-19T09:51:49;31.70;99.90
34955;DHT22;21639;51.460;-2.536;2022-07-19T09:54:18;31.80;99.90
34955;DHT22;21639;51.460;-2.536;2022-07-19T09:56:45;31.80;99.90
34955;DHT22;21639;51.460;-2.536;2022-07-19T09:59:11;31.90;99.90
34955;DHT22;21639;51.460;-2.536;2022-07-19T10:01:37;32.00;99.90
34955;DHT22;21639;51.460;-2.536;2022-07-19T10:04:18;32.20;99.90
34955;DHT22;21639;51.460;-2.536;2022-07-19T10:06:46;32.10;99.90
34955;DHT22;21639;51.460;-2.536;2022-07-19T10:09:15;32.10;99.90
34955;DHT22;21639;51.460;-2.536;2022-07-19T10:11:42;32.00;99.90
34955;DHT22;21639;51.460;-2.536;2022-07-19T10:14:08;32.10;99.90
34955;DHT22;21639;51.460;-2.536;2022-07-19T10:17:02;32.20;99.90
34955;DHT22;21639;51.460;-2.536;2022-07-19T10:22:04;32.30;99.90
34955;DHT22;21639;51.460;-2.536;2022-07-19T10:24:47;32.40;99.90
34955;DHT22;21639;51.460;-2.536;2022-07-19T10:27:15;32.50;99.90
34955;DHT22;21639;51.460;-2.536;2022-07-19T10:29:41;32.50;99.90
34955;DHT22;21639;51.460;-2.536;2022-07-19T10:32:11;32.50;99.90
34955;DHT22;21639;51.460;-2.536;2022-07-19T10:34:38;32.40;99.90
34955;DHT22;21639;51.460;-2.536;2022-07-19T10:37:04;32.50;99.90
34955;DHT22;21639;51.460;-2.536;2022-07-19T10:39:37;32.60;99.90
34955;DHT22;21639;51.460;-2.536;2022-07-19T10:45:21;32.60;99.90
34955;DHT22;21639;51.460;-2.536;2022-07-19T10:50:10;32.40;99.90
34955;DHT22;21639;51.460;-2.536;2022-07-19T10:52:41;32.30;99.90
34955;DHT22;21639;51.460;-2.536;2022-07-19T11:01:01;30.90;99.90
34955;DHT22;21639;51.460;-2.536;2022-07-19T11:03:39;30.80;99.90
34955;DHT22;21639;51.460;-2.536;2022-07-19T11:06:05;30.80;99.90
34955;DHT22;21639;51.460;-2.536;2022-07-19T11:08:38;30.90;99.90
34955;DHT22;21639;51.460;-2.536;2022-07-19T11:11:09;31.00;99.90
34955;DHT22;21639;51.460;-2.536;2022-07-19T11:13:37;30.90;99.90
34955;DHT22;21639;51.460;-2.536;2022-07-19T11:16:03;31.00;99.90
34955;DHT22;21639;51.460;-2.536;2022-07-19T11:18:30;31.20;99.90
34955;DHT22;21639;51.460;-2.536;2022-07-19T11:20:58;31.40;99.90
34955;DHT22;21639;51.460;-2.536;2022-07-19T11:23:25;31.30;99.90
34955;DHT22;21639;51.460;-2.536;2022-07-19T11:26:08;31.30;99.90
34955;DHT22;21639;51.460;-2.536;2022-07-19T11:28:34;31.40;99.90
34955;DHT22;21639;51.460;-2.536;2022-07-19T11:31:01;31.50;99.90
34955;DHT22;21639;51.460;-2.536;2022-07-19T11:33:35;31.80;99.90
34955;DHT22;21639;51.460;-2.536;2022-07-19T11:36:01;32.00;99.90
34955;DHT22;21639;51.460;-2.536;2022-07-19T11:38:49;32.30;99.90
34955;DHT22;21639;51.460;-2.536;2022-07-19T11:41:24;32.60;99.90
34955;DHT22;21639;51.460;-2.536;2022-07-19T11:43:55;32.70;99.90
34955;DHT22;21639;51.460;-2.536;2022-07-19T11:46:23;32.60;99.90
34955;DHT22;21639;51.460;-2.536;2022-07-19T11:48:54;32.90;99.90
34955;DHT22;21639;51.460;-2.536;2022-07-19T11:51:20;33.00;99.90
34955;DHT22;21639;51.460;-2.536;2022-07-19T11:53:50;32.90;99.90
34955;DHT22;21639;51.460;-2.536;2022-07-19T11:56:24;33.20;99.90
34955;DHT22;21639;51.460;-2.536;2022-07-19T11:58:51;33.20;99.90
34955;DHT22;21639;51.460;-2.536;2022-07-19T12:01:28;33.00;99.90
34955;DHT22;21639;51.460;-2.536;2022-07-19T12:04:05;33.30;99.90
34955;DHT22;21639;51.460;-2.536;2022-07-19T12:06:42;33.60;99.90
34955;DHT22;21639;51.460;-2.536;2022-07-19T12:09:15;33.90;99.90
34955;DHT22;21639;51.460;-2.536;2022-07-19T12:11:46;34.10;99.90
34955;DHT22;21639;51.460;-2.536;2022-07-19T12:14:32;34.30;99.90
34955;DHT22;21639;51.460;-2.536;2022-07-19T12:17:19;34.20;99.90
34955;DHT22;21639;51.460;-2.536;2022-07-19T12:19:48;34.20;99.90
34955;DHT22;21639;51.460;-2.536;2022-07-19T12:22:31;34.30;99.90
34955;DHT22;21639;51.460;-2.536;2022-07-19T12:24:57;34.30;99.90
34955;DHT22;21639;51.460;-2.536;2022-07-19T12:27:24;34.00;99.90
34955;DHT22;21639;51.460;-2.536;2022-07-19T12:29:54;34.00;99.90
34955;DHT22;21639;51.460;-2.536;2022-07-19T12:32:32;34.10;99.90
34955;DHT22;21639;51.460;-2.536;2022-07-19T12:35:02;34.40;99.90
34955;DHT22;21639;51.460;-2.536;2022-07-19T12:37:46;34.80;99.90
34955;DHT22;21639;51.460;-2.536;2022-07-19T12:40:13;34.90;99.90
34955;DHT22;21639;51.460;-2.536;2022-07-19T12:42:52;35.00;99.90
34955;DHT22;21639;51.460;-2.536;2022-07-19T12:45:27;35.20;99.90
34955;DHT22;21639;51.460;-2.536;2022-07-19T12:47:54;35.50;99.90
34955;DHT22;21639;51.460;-2.536;2022-07-19T12:50:26;35.20;99.90
34955;DHT22;21639;51.460;-2.536;2022-07-19T12:52:54;35.40;99.90
34955;DHT22;21639;51.460;-2.536;2022-07-19T12:55:22;35.40;99.90
34955;DHT22;21639;51.460;-2.536;2022-07-19T12:57:49;35.50;99.90
34955;DHT22;21639;51.460;-2.536;2022-07-19T13:00:16;35.60;99.90
34955;DHT22;21639;51.460;-2.536;2022-07-19T13:02:42;36.00;99.90
34955;DHT22;21639;51.460;-2.536;2022-07-19T13:05:08;36.30;99.90
34955;DHT22;21639;51.460;-2.536;2022-07-19T13:07:33;36.20;99.90
34955;DHT22;21639;51.460;-2.536;2022-07-19T13:09:59;35.80;99.90
34955;DHT22;21639;51.460;-2.536;2022-07-19T13:12:25;36.00;99.90
34955;DHT22;21639;51.460;-2.536;2022-07-19T13:14:50;35.80;99.90
34955;DHT22;21639;51.460;-2.536;2022-07-19T13:17:16;36.00;99.90
34955;DHT22;21639;51.460;-2.536;2022-07-19T13:19:42;35.70;99.90
34955;DHT22;21639;51.460;-2.536;2022-07-19T13:22:07;35.10;99.90
34955;DHT22;21639;51.460;-2.536;2022-07-19T13:24:33;34.90;99.90
34955;DHT22;21639;51.460;-2.536;2022-07-19T13:26:59;34.60;99.90
34955;DHT22;21639;51.460;-2.536;2022-07-19T13:29:25;34.20;99.90
34955;DHT22;21639;51.460;-2.536;2022-07-19T13:31:51;34.10;99.90
34955;DHT22;21639;51.460;-2.536;2022-07-19T13:34:17;34.50;99.90
34955;DHT22;21639;51.460;-2.536;2022-07-19T13:36:42;34.70;99.90
34955;DHT22;21639;51.460;-2.536;2022-07-19T13:39:09;34.50;99.90
34955;DHT22;21639;51.460;-2.536;2022-07-19T13:41:39;34.40;99.90
34955;DHT22;21639;51.460;-2.536;2022-07-19T13:44:05;34.40;99.90
34955;DHT22;21639;51.460;-2.536;2022-07-19T13:46:32;34.00;99.90
34955;DHT22;21639;51.460;-2.536;2022-07-19T13:48:58;33.70;99.90
34955;DHT22;21639;51.460;-2.536;2022-07-19T13:51:23;33.40;99.90
34955;DHT22;21639;51.460;-2.536;2022-07-19T13:53:49;33.20;99.90
34955;DHT22;21639;51.460;-2.536;2022-07-19T13:56:15;32.80;99.90
34955;DHT22;21639;51.460;-2.536;2022-07-19T13:58:41;32.80;99.90
34955;DHT22;21639;51.460;-2.536;2022-07-19T14:01:07;33.40;99.90
34955;DHT22;21639;51.460;-2.536;2022-07-19T14:03:33;33.70;99.90
34955;DHT22;21639;51.460;-2.536;2022-07-19T14:05:58;33.50;99.90
34955;DHT22;21639;51.460;-2.536;2022-07-19T14:08:24;33.40;99.90
34955;DHT22;21639;51.460;-2.536;2022-07-19T14:10:50;33.40;99.90
34955;DHT22;21639;51.460;-2.536;2022-07-19T14:13:15;33.30;99.90
34955;DHT22;21639;51.460;-2.536;2022-07-19T14:15:41;33.20;99.90
34955;DHT22;21639;51.460;-2.536;2022-07-19T14:18:09;33.00;99.90
34955;DHT22;21639;51.460;-2.536;2022-07-19T14:20:34;33.00;99.90
34955;DHT22;21639;51.460;-2.536;2022-07-19T14:23:00;32.50;99.90
34955;DHT22;21639;51.460;-2.536;2022-07-19T14:25:26;32.40;99.90
34955;DHT22;21639;51.460;-2.536;2022-07-19T14:27:52;32.10;99.90
34955;DHT22;21639;51.460;-2.536;2022-07-19T14:30:17;31.90;99.90
34955;DHT22;21639;51.460;-2.536;2022-07-19T14:32:43;31.70;99.90
34955;DHT22;21639;51.460;-2.536;2022-07-19T14:35:09;31.60;99.90
34955;DHT22;21639;51.460;-2.536;2022-07-19T14:37:35;31.60;99.90
34955;DHT22;21639;51.460;-2.536;2022-07-19T14:40:01;31.50;99.90
34955;DHT22;21639;51.460;-2.536;2022-07-19T14:42:27;31.50;99.90
34955;DHT22;21639;51.460;-2.536;2022-07-19T14:44:56;31.30;99.90
34955;DHT22;21639;51.460;-2.536;2022-07-19T14:47:21;31.10;99.90
34955;DHT22;21639;51.460;-2.536;2022-07-19T14:49:47;30.70;99.90
34955;DHT22;21639;51.460;-2.536;2022-07-19T14:52:13;30.00;1.00
34955;DHT22;21639;51.460;-2.536;2022-07-19T14:54:39;29.50;99.90
34955;DHT22;21639;51.460;-2.536;2022-07-19T14:57:04;29.30;1.00
34955;DHT22;21639;51.460;-2.536;2022-07-19T14:59:30;29.10;1.00
34955;DHT22;21639;51.460;-2.536;2022-07-19T15:01:56;28.90;99.90
34955;DHT22;21639;51.460;-2.536;2022-07-19T15:04:21;29.00;1.00
34955;DHT22;21639;51.460;-2.536;2022-07-19T15:06:47;29.00;99.90
34955;DHT22;21639;51.460;-2.536;2022-07-19T15:09:13;29.30;99.90
34955;DHT22;21639;51.460;-2.536;2022-07-19T15:11:40;29.50;99.90
34955;DHT22;21639;51.460;-2.536;2022-07-19T15:14:06;30.00;99.90
34955;DHT22;21639;51.460;-2.536;2022-07-19T15:16:32;30.90;99.90
34955;DHT22;21639;51.460;-2.536;2022-07-19T15:18:58;31.40;99.90
34955;DHT22;21639;51.460;-2.536;2022-07-19T15:21:23;31.80;99.90
34955;DHT22;21639;51.460;-2.536;2022-07-19T15:23:49;32.10;99.90
34955;DHT22;21639;51.460;-2.536;2022-07-19T15:26:15;32.20;99.90
34955;DHT22;21639;51.460;-2.536;2022-07-19T15:28:41;32.40;99.90
34955;DHT22;21639;51.460;-2.536;2022-07-19T15:31:07;32.00;99.90
34955;DHT22;21639;51.460;-2.536;2022-07-19T15:33:33;31.90;99.90
34955;DHT22;21639;51.460;-2.536;2022-07-19T15:35:59;32.20;99.90